Time;durP1;ratioP1;P1;durP2;ratioP2;P2;SDS_P1;SDS_P2;PMS_P1;PMS_P2;Temp;Humidity;BMP_temperature;BMP_pressure;BME280_temperature;BME280_humidity;BME280_pressure;Samples;Min_cycle;Max_cycle;Signal;HPM_P1;HPM_P2
2024/01/03 00:02:18;;;;;;;384.05;167.70;;;4.60;99.90;;;;;;4998396;28;20399;-54
2024/01/03 00:04:44;;;;;;;373.33;167.10;;;4.70;99.90;;;;;;4998187;28;20049;-54
2024/01/03 00:07:10;;;;;;;353.90;155.73;;;4.80;99.90;;;;;;4997277;28;20026;-54
2024/01/03 00:09:36;;;;;;;363.10;160.98;;;4.80;99.90;;;;;;4998202;28;20081;-54
2024/01/03 00:12:03;;;;;;;354.58;161.45;;;4.80;99.90;;;;;;4997070;28;20484;-54
2024/01/03 00:14:31;;;;;;;368.33;166.88;;;4.80;99.90;;;;;;4998174;28;20050;-54
2024/01/03 00:17:02;;;;;;;362.88;163.18;;;4.80;99.90;;;;;;4997984;28;20166;-54
2024/01/03 00:19:28;;;;;;;363.05;159.65;;;4.90;99.90;;;;;;4998124;28;20080;-54
2024/01/03 00:21:55;;;;;;;368.25;157.55;;;4.90;99.90;;;;;;4998073;28;20019;-54
2024/01/03 00:24:21;;;;;;;313.50;139.73;;;5.00;99.90;;;;;;4997861;28;20038;-54
2024/01/03 00:26:47;;;;;;;290.02;133.88;;;5.10;99.90;;;;;;4997857;28;20030;-54
2024/01/03 00:29:22;;;;;;;297.48;132.13;;;5.20;99.90;;;;;;4996592;28;20062;-54
2024/01/03 00:31:48;;;;;;;284.98;129.70;;;5.10;99.90;;;;;;4996602;28;20022;-54
2024/01/03 00:34:23;;;;;;;327.05;150.27;;;5.10;99.90;;;;;;4996557;28;20093;-54
2024/01/03 00:36:50;;;;;;;293.77;135.82;;;5.10;99.90;;;;;;4996194;28;20062;-54
2024/01/03 00:39:32;;;;;;;274.98;126.47;;;5.00;99.90;;;;;;4998043;28;20026;-54
2024/01/03 00:41:58;;;;;;;286.85;127.82;;;5.10;99.90;;;;;;4997672;28;20042;-54
2024/01/03 00:44:24;;;;;;;303.73;133.88;;;5.10;99.90;;;;;;4996313;28;20031;-54
2024/01/03 00:46:52;;;;;;;277.42;126.43;;;5.10;99.90;;;;;;4997498;28;20027;-54
2024/01/03 00:49:19;;;;;;;268.50;124.18;;;5.20;99.90;;;;;;4996301;28;20023;-54
2024/01/03 00:51:48;;;;;;;395.88;172.02;;;5.10;99.90;;;;;;4997527;28;20026;-54
2024/01/03 00:54:16;;;;;;;391.63;165.75;;;5.20;99.90;;;;;;4996039;28;20026;-54
2024/01/03 00:56:43;;;;;;;356.67;151.68;;;5.30;99.90;;;;;;4997659;28;20049;-54
2024/01/03 00:59:10;;;;;;;340.33;153.68;;;5.30;99.90;;;;;;4996138;28;20034;-54
2024/01/03 01:01:35;;;;;;;315.83;142.68;;;5.30;99.90;;;;;;4996024;28;20088;-54
2024/01/03 01:04:02;;;;;;;291.77;132.43;;;5.30;99.90;;;;;;4997167;28;20022;-54
2024/01/03 01:06:29;;;;;;;191.15;87.18;;;5.40;99.90;;;;;;4997084;28;20026;-54
2024/01/03 01:08:56;;;;;;;108.32;49.92;;;5.60;99.90;;;;;;4995997;28;20123;-54
2024/01/03 01:11:21;;;;;;;39.60;16.60;;;5.80;99.90;;;;;;4995642;28;20073;-54
2024/01/03 01:13:47;;;;;;;13.10;5.40;;;6.30;99.90;;;;;;4995837;28;20026;-54
2024/01/03 01:16:13;;;;;;;11.57;4.28;;;7.00;99.90;;;;;;4996911;28;20038;-54
2024/01/03 01:18:39;;;;;;;14.10;4.75;;;7.80;99.90;;;;;;4996814;28;20270;-54
2024/01/03 01:21:05;;;;;;;8.68;3.80;;;7.90;99.90;;;;;;4995660;28;20045;-54
2024/01/03 01:23:30;;;;;;;14.82;5.15;;;8.20;99.90;;;;;;4996928;28;20056;-54
2024/01/03 01:25:56;;;;;;;10.82;3.28;;;8.40;99.90;;;;;;4996597;28;20036;-54
2024/01/03 01:28:22;;;;;;;8.50;3.20;;;8.70;99.90;;;;;;4995745;28;20034;-54
2024/01/03 01:30:48;;;;;;;9.07;3.50;;;8.90;99.80;;;;;;4996783;28;20054;-54
2024/01/03 01:33:14;;;;;;;10.20;4.53;;;9.00;99.20;;;;;;4995387;28;20093;-54
2024/01/03 01:35:40;;;;;;;6.97;3.28;;;9.00;99.40;;;;;;4996699;28;20022;-54
2024/01/03 01:38:06;;;;;;;7.82;3.60;;;9.10;98.30;;;;;;4996593;28;20030;-54
2024/01/03 01:40:33;;;;;;;11.02;5.20;;;9.20;98.00;;;;;;4995295;28;20093;-54
2024/01/03 01:42:58;;;;;;;12.00;3.30;;;9.20;98.00;;;;;;4995422;28;20251;-54
2024/01/03 01:45:24;;;;;;;5.10;2.13;;;9.30;97.20;;;;;;4995256;28;20061;-54
2024/01/03 01:47:51;;;;;;;6.53;2.67;;;9.40;96.60;;;;;;4995136;28;20500;-54
2024/01/03 01:50:18;;;;;;;62.25;25.00;;;9.50;96.70;;;;;;4996561;28;20086;-54
2024/01/03 01:52:44;;;;;;;23.83;10.77;;;9.50;96.60;;;;;;4996404;28;20498;-54
2024/01/03 01:55:11;;;;;;;110.88;49.38;;;9.40;96.90;;;;;;4996209;28;20038;-54
2024/01/03 01:57:40;;;;;;;84.82;41.63;;;9.30;96.40;;;;;;4995133;28;20440;-54
2024/01/03 02:00:07;;;;;;;80.57;40.78;;;9.00;96.40;;;;;;4995003;28;20026;-54
2024/01/03 02:02:41;;;;;;;86.75;42.45;;;8.90;97.00;;;;;;4996519;28;20034;-54
2024/01/03 02:05:09;;;;;;;173.75;64.75;;;8.80;97.40;;;;;;4996225;28;20472;-54
2024/01/03 02:07:36;;;;;;;472.98;161.43;;;8.80;97.60;;;;;;4996030;28;20073;-54
2024/01/03 02:10:02;;;;;;;292.42;102.45;;;8.70;98.00;;;;;;4993970;28;20090;-54
2024/01/03 02:12:29;;;;;;;129.60;56.47;;;8.50;98.40;;;;;;4996245;28;20030;-54
2024/01/03 02:14:55;;;;;;;149.30;59.30;;;8.50;98.80;;;;;;4994914;28;20369;-54
2024/01/03 02:17:22;;;;;;;89.55;37.55;;;8.20;99.50;;;;;;4994722;28;20254;-54
2024/01/03 02:19:48;;;;;;;147.73;60.53;;;8.10;99.90;;;;;;4996031;28;20022;-54
2024/01/03 02:22:16;;;;;;;151.85;57.67;;;8.10;99.90;;;;;;4996053;28;20057;-54
2024/01/03 02:24:43;;;;;;;144.13;52.83;;;8.00;99.90;;;;;;4996042;28;20396;-54
2024/01/03 02:27:09;;;;;;;243.45;85.10;;;8.10;99.90;;;;;;4994550;28;20050;-54
2024/01/03 02:29:34;;;;;;;211.07;72.13;;;8.20;99.90;;;;;;4997272;28;20088;-54
2024/01/03 02:32:00;;;;;;;225.80;72.95;;;8.20;99.90;;;;;;5000217;28;20518;-54
2024/01/03 02:34:26;;;;;;;181.00;57.50;;;8.30;99.90;;;;;;4999996;28;20036;-54
2024/01/03 02:36:54;;;;;;;115.70;40.35;;;8.30;99.90;;;;;;4999949;28;20076;-54
2024/01/03 02:39:19;;;;;;;93.97;31.67;;;8.40;99.90;;;;;;4999953;28;20022;-54
2024/01/03 02:41:45;;;;;;;86.38;31.60;;;8.40;99.90;;;;;;4999730;28;20484;-54
2024/01/03 02:44:11;;;;;;;62.42;22.92;;;8.50;99.90;;;;;;4999849;28;20150;-54
2024/01/03 02:46:37;;;;;;;47.60;17.15;;;8.50;99.90;;;;;;4999722;28;20054;-54
2024/01/03 02:49:03;;;;;;;24.33;8.13;;;8.70;99.60;;;;;;4999740;28;20058;-54
2024/01/03 02:51:29;;;;;;;13.05;4.95;;;8.90;99.30;;;;;;4999645;28;20026;-54
2024/01/03 02:53:54;;;;;;;6.10;1.80;;;9.10;98.50;;;;;;4999651;28;20387;-54
2024/01/03 02:56:20;;;;;;;5.70;2.00;;;9.60;96.70;;;;;;4999494;28;20038;-54
2024/01/03 02:58:46;;;;;;;6.32;2.33;;;9.90;95.90;;;;;;4999614;28;20037;-54
2024/01/03 03:01:12;;;;;;;4.97;1.90;;;10.20;94.60;;;;;;4999666;28;20030;-54
2024/01/03 03:03:38;;;;;;;4.63;1.23;;;10.40;94.50;;;;;;4999624;28;20439;-54
2024/01/03 03:06:04;;;;;;;5.32;1.60;;;10.40;93.80;;;;;;4999302;28;20125;-54
2024/01/03 03:08:31;;;;;;;7.28;2.08;;;10.60;93.10;;;;;;4999299;28;20062;-54
2024/01/03 03:10:57;;;;;;;7.22;1.70;;;10.70;92.90;;;;;;4999399;28;20023;-54
2024/01/03 03:13:26;;;;;;;5.18;1.73;;;10.70;92.90;;;;;;4999257;28;20023;-54
2024/01/03 03:15:52;;;;;;;6.97;1.83;;;10.80;92.40;;;;;;4999578;28;20479;-54
2024/01/03 03:18:18;;;;;;;2.65;1.52;;;10.80;92.40;;;;;;4999060;28;20034;-54
2024/01/03 03:20:44;;;;;;;5.22;1.95;;;10.90;91.80;;;;;;4999131;28;20104;-54
2024/01/03 03:23:10;;;;;;;4.85;3.17;;;10.90;91.80;;;;;;4999244;28;20027;-54
2024/01/03 03:25:36;;;;;;;4.00;1.88;;;10.90;91.70;;;;;;4999091;28;20034;-54
2024/01/03 03:28:07;;;;;;;8.35;4.70;;;10.90;91.70;;;;;;4998838;28;20084;-54
2024/01/03 03:30:35;;;;;;;8.57;3.05;;;10.80;92.00;;;;;;4998988;28;20575;-54
2024/01/03 03:33:01;;;;;;;8.68;4.20;;;10.80;92.20;;;;;;4998828;28;20361;-54
2024/01/03 03:35:27;;;;;;;10.52;5.53;;;10.80;91.90;;;;;;4999173;28;20037;-54
2024/01/03 03:37:52;;;;;;;8.73;4.22;;;10.70;92.10;;;;;;4998942;28;20428;-54
2024/01/03 03:40:18;;;;;;;11.32;7.20;;;10.60;92.20;;;;;;4998252;28;20019;-54
2024/01/03 03:42:47;;;;;;;9.45;3.88;;;10.60;92.50;;;;;;4997819;28;20480;-54
2024/01/03 03:45:13;;;;;;;10.65;3.60;;;10.60;92.40;;;;;;4997608;28;20100;-54
2024/01/03 03:47:39;;;;;;;11.50;3.55;;;10.50;93.60;;;;;;4998444;28;20483;-54
2024/01/03 03:50:05;;;;;;;4.43;2.70;;;10.40;93.20;;;;;;4998643;28;20026;-54
2024/01/03 03:52:31;;;;;;;19.58;7.40;;;10.40;93.10;;;;;;4998570;28;20117;-54
2024/01/03 03:54:57;;;;;;;18.67;6.40;;;10.40;93.50;;;;;;4998350;28;20026;-54
2024/01/03 03:57:22;;;;;;;15.10;6.00;;;10.40;93.10;;;;;;4998569;28;20041;-54
2024/01/03 03:59:48;;;;;;;16.58;6.90;;;10.60;92.50;;;;;;4998541;28;20061;-54
2024/01/03 04:02:14;;;;;;;9.57;4.03;;;10.60;92.80;;;;;;4998326;28;20033;-54
2024/01/03 04:04:40;;;;;;;9.80;4.43;;;10.60;92.90;;;;;;4998340;28;20034;-54
2024/01/03 04:07:06;;;;;;;10.07;4.60;;;10.50;93.70;;;;;;4998236;28;20036;-54
2024/01/03 04:09:32;;;;;;;8.13;4.05;;;10.50;93.40;;;;;;4998179;28;20485;-54
2024/01/03 04:11:57;;;;;;;8.13;4.07;;;10.50;93.30;;;;;;4998303;28;20495;-54
2024/01/03 04:14:23;;;;;;;9.63;4.43;;;10.50;93.00;;;;;;4998127;28;20129;-54
2024/01/03 04:16:49;;;;;;;7.95;3.75;;;10.40;92.80;;;;;;4997875;28;20386;-54
2024/01/03 04:19:15;;;;;;;6.53;3.60;;;10.40;92.70;;;;;;4998125;28;20033;-54
2024/01/03 04:21:41;;;;;;;10.80;3.38;;;10.40;92.60;;;;;;4998118;28;20031;-54
2024/01/03 04:24:07;;;;;;;8.35;3.58;;;10.40;92.50;;;;;;4998279;28;20026;-54
2024/01/03 04:26:33;;;;;;;6.57;3.17;;;10.40;92.70;;;;;;4997720;28;20042;-54
2024/01/03 04:28:59;;;;;;;7.45;3.13;;;10.40;92.90;;;;;;4997939;28;20078;-54
2024/01/03 04:31:25;;;;;;;7.90;2.97;;;10.40;92.70;;;;;;4997883;28;20457;-54
2024/01/03 04:33:51;;;;;;;8.23;3.45;;;10.40;92.90;;;;;;4997899;28;20059;-54
2024/01/03 04:36:17;;;;;;;8.40;2.75;;;10.30;93.50;;;;;;4997721;28;20043;-54
2024/01/03 04:38:42;;;;;;;5.15;2.75;;;10.30;93.20;;;;;;4997717;28;20396;-54
2024/01/03 04:41:09;;;;;;;4.25;1.75;;;10.30;92.80;;;;;;4997736;28;20038;-54
2024/01/03 04:43:35;;;;;;;8.95;2.78;;;10.30;92.50;;;;;;4997524;28;20125;-54
2024/01/03 04:46:01;;;;;;;8.57;3.05;;;10.30;93.40;;;;;;4997418;28;20124;-54
2024/01/03 04:48:26;;;;;;;7.40;2.90;;;10.30;93.20;;;;;;4997991;28;20469;-54
2024/01/03 04:50:52;;;;;;;146.05;55.75;;;10.30;92.90;;;;;;4997547;28;20085;-54
2024/01/03 04:53:18;;;;;;;33.58;15.50;;;10.30;92.80;;;;;;4997055;28;20022;-54
2024/01/03 04:55:45;;;;;;;38.63;17.13;;;10.40;92.50;;;;;;4997245;28;20038;-54
2024/01/03 04:58:10;;;;;;;36.00;14.68;;;10.40;92.90;;;;;;4997522;28;20034;-54
2024/01/03 05:00:36;;;;;;;34.83;16.65;;;10.30;93.50;;;;;;4997226;28;20521;-54
2024/01/03 05:03:03;;;;;;;18.27;8.63;;;10.20;93.90;;;;;;4997312;28;20034;-54
2024/01/03 05:05:28;;;;;;;23.85;5.78;;;10.10;94.00;;;;;;4997260;28;20033;-54
2024/01/03 05:07:56;;;;;;;22.08;7.15;;;10.00;94.80;;;;;;4997089;28;20097;-54
2024/01/03 05:10:21;;;;;;;31.17;10.48;;;9.90;95.30;;;;;;4997215;28;20023;-54
2024/01/03 05:12:47;;;;;;;23.90;9.75;;;9.80;95.40;;;;;;4997105;28;20060;-54
2024/01/03 05:15:13;;;;;;;35.85;15.30;;;9.70;95.70;;;;;;4997060;28;20038;-54
2024/01/03 05:17:41;;;;;;;41.28;15.13;;;9.50;96.60;;;;;;4996863;28;20030;-54
2024/01/03 05:20:08;;;;;;;34.83;14.68;;;9.40;96.80;;;;;;4996989;28;20026;-54
2024/01/03 05:22:34;;;;;;;35.00;17.63;;;9.20;97.30;;;;;;4996869;28;20030;-54
2024/01/03 05:25:00;;;;;;;51.08;24.70;;;9.10;98.00;;;;;;4996838;28;20027;-54
2024/01/03 05:27:26;;;;;;;49.78;18.38;;;9.10;98.50;;;;;;4996650;28;20034;-54
2024/01/03 05:29:53;;;;;;;50.90;21.23;;;9.00;98.60;;;;;;4996563;28;20050;-54
2024/01/03 05:32:19;;;;;;;62.60;19.60;;;8.80;99.20;;;;;;4996761;28;20030;-54
2024/01/03 05:34:45;;;;;;;54.63;20.58;;;8.60;99.80;;;;;;4996717;28;20030;-54
2024/01/03 05:37:11;;;;;;;52.97;20.63;;;8.60;99.90;;;;;;4996502;28;20113;-54
2024/01/03 05:39:37;;;;;;;64.18;25.50;;;8.60;99.90;;;;;;4996492;28;20058;-54
2024/01/03 05:42:04;;;;;;;63.85;23.65;;;8.60;99.90;;;;;;4996484;28;20037;-54
2024/01/03 05:44:29;;;;;;;70.38;32.58;;;8.40;99.90;;;;;;4996424;28;20045;-54
2024/01/03 05:46:55;;;;;;;56.55;24.88;;;8.50;99.90;;;;;;4996473;28;20388;-54
2024/01/03 05:49:21;;;;;;;170.07;66.07;;;8.40;99.90;;;;;;4996408;28;20113;-54
2024/01/03 05:51:47;;;;;;;120.57;41.72;;;8.60;99.90;;;;;;4996711;28;20050;-54
2024/01/03 05:54:13;;;;;;;104.72;38.60;;;8.60;99.90;;;;;;4996234;28;20037;-54
2024/01/03 05:56:39;;;;;;;111.88;40.53;;;8.70;99.90;;;;;;4996199;28;20129;-54
2024/01/03 05:59:05;;;;;;;96.50;34.40;;;8.70;99.90;;;;;;4996336;28;20094;-54
2024/01/03 06:01:31;;;;;;;80.88;29.92;;;8.70;99.90;;;;;;4995964;28;20455;-54
2024/01/03 06:03:57;;;;;;;226.70;94.78;;;8.70;99.90;;;;;;4995459;28;20050;-54
2024/01/03 06:06:22;;;;;;;102.70;41.15;;;8.70;99.90;;;;;;4996163;28;20026;-54
2024/01/03 06:08:48;;;;;;;82.05;32.17;;;8.80;99.90;;;;;;4996166;28;20054;-54
2024/01/03 06:11:14;;;;;;;67.35;29.55;;;8.90;99.90;;;;;;4996071;28;20085;-54
2024/01/03 06:13:40;;;;;;;62.30;23.88;;;8.90;99.90;;;;;;4995774;28;20547;-54
2024/01/03 06:16:06;;;;;;;70.13;26.75;;;9.00;99.90;;;;;;4995653;28;20161;-54
2024/01/03 06:18:32;;;;;;;47.15;21.85;;;9.10;99.90;;;;;;4995952;28;20080;-54
2024/01/03 06:20:58;;;;;;;107.75;43.13;;;9.20;99.70;;;;;;4994420;28;20458;-54
2024/01/03 06:23:24;;;;;;;54.13;23.67;;;9.30;99.50;;;;;;4996176;28;20108;-54
2024/01/03 06:25:50;;;;;;;29.67;11.90;;;9.40;99.00;;;;;;4995912;28;20030;-54
2024/01/03 06:28:16;;;;;;;52.85;14.07;;;9.60;98.40;;;;;;5013209;28;20045;-54
2024/01/03 06:30:43;;;;;;;65.88;17.27;;;9.70;98.40;;;;;;5015076;28;20022;-54
2024/01/03 06:33:09;;;;;;;50.03;13.68;;;9.70;98.40;;;;;;4995434;28;20058;-54
2024/01/03 06:35:34;;;;;;;38.05;14.73;;;9.80;98.00;;;;;;4993652;28;20023;-54
2024/01/03 06:38:03;;;;;;;29.77;13.75;;;9.90;97.90;;;;;;4992524;28;20404;-54
2024/01/03 06:40:30;;;;;;;28.38;12.50;;;10.00;98.00;;;;;;4994148;28;20026;-54
2024/01/03 06:42:56;;;;;;;41.60;18.80;;;10.00;98.00;;;;;;4993832;28;20349;-54
2024/01/03 06:45:22;;;;;;;181.82;64.88;;;10.10;98.20;;;;;;4996101;28;20025;-54
2024/01/03 06:47:48;;;;;;;63.60;24.77;;;10.10;98.30;;;;;;4993788;28;20022;-54
2024/01/03 06:50:13;;;;;;;48.58;22.20;;;10.10;98.40;;;;;;4994994;28;20042;-54
2024/01/03 06:52:39;;;;;;;65.53;26.63;;;10.10;98.50;;;;;;5003600;28;20108;-54
2024/01/03 06:55:06;;;;;;;95.43;41.10;;;10.10;98.60;;;;;;5015068;28;20053;-54
2024/01/03 06:57:31;;;;;;;65.38;28.80;;;10.10;98.80;;;;;;5015289;28;20030;-55
2024/01/03 06:59:57;;;;;;;60.65;26.52;;;10.10;99.00;;;;;;5014741;28;20145;-54
2024/01/03 07:02:23;;;;;;;68.22;31.58;;;10.10;99.80;;;;;;5015461;28;20097;-54
2024/01/03 07:04:49;;;;;;;57.97;27.45;;;10.10;99.90;;;;;;5014572;28;20057;-54
2024/01/03 07:07:17;;;;;;;65.03;28.65;;;10.10;99.90;;;;;;5014955;28;20132;-54
2024/01/03 07:09:43;;;;;;;77.63;35.53;;;10.00;99.90;;;;;;4999494;28;20109;-54
2024/01/03 07:12:09;;;;;;;84.18;39.25;;;9.80;99.90;;;;;;4988649;28;20030;-54
2024/01/03 07:14:35;;;;;;;75.10;36.08;;;9.60;99.90;;;;;;4994945;28;20419;-54
2024/01/03 07:17:00;;;;;;;81.20;36.50;;;9.50;99.90;;;;;;4998505;28;20035;-54
2024/01/03 07:19:26;;;;;;;79.30;36.50;;;9.50;99.90;;;;;;4998949;28;20382;-54
2024/01/03 07:21:52;;;;;;;86.47;40.53;;;9.40;99.90;;;;;;4996934;28;20085;-54
2024/01/03 07:24:18;;;;;;;84.72;40.78;;;9.40;99.90;;;;;;4999150;28;20479;-54
2024/01/03 07:26:44;;;;;;;93.55;42.75;;;9.20;99.90;;;;;;4997384;28;20063;-54
2024/01/03 07:29:09;;;;;;;88.55;42.00;;;9.10;99.90;;;;;;4990378;28;20035;-54
2024/01/03 09:18:26;;;;;;;53.42;27.17;;;10.00;99.90;;;;;;5132715;27;20403;-57
2024/01/03 09:20:53;;;;;;;67.13;35.67;;;10.40;99.90;;;;;;5132099;28;20035;-57
2024/01/03 09:23:19;;;;;;;83.60;39.25;;;10.50;99.90;;;;;;5124205;27;20035;-56
2024/01/03 09:25:44;;;;;;;85.00;41.58;;;10.60;99.90;;;;;;5113002;27;20028;-57
2024/01/03 09:28:10;;;;;;;71.22;34.30;;;10.70;99.90;;;;;;5126034;28;20027;-57
2024/01/03 09:30:37;;;;;;;89.18;44.95;;;10.70;99.90;;;;;;5133383;27;20027;-56
2024/01/03 09:33:03;;;;;;;87.05;44.55;;;10.80;99.90;;;;;;5131348;27;20027;-56
2024/01/03 09:35:28;;;;;;;87.50;45.03;;;10.80;99.90;;;;;;5129194;28;20620;-57
2024/01/03 09:37:54;;;;;;;80.53;36.30;;;10.80;99.90;;;;;;5133726;28;20135;-57
2024/01/03 09:40:20;;;;;;;97.93;39.05;;;10.90;99.90;;;;;;5132889;27;20039;-57
2024/01/03 09:42:48;;;;;;;100.32;38.25;;;11.00;99.90;;;;;;5133654;28;20506;-56
2024/01/03 09:45:14;;;;;;;96.82;37.35;;;11.00;99.90;;;;;;5133529;27;20103;-57
2024/01/03 09:47:40;;;;;;;65.18;25.25;;;11.10;99.90;;;;;;5133182;28;20030;-56
2024/01/03 09:50:07;;;;;;;81.50;27.27;;;11.20;99.90;;;;;;5132328;27;20031;-57
2024/01/03 09:52:34;;;;;;;58.47;22.05;;;11.30;99.90;;;;;;5126293;27;20066;-57
2024/01/03 09:55:00;;;;;;;74.25;32.75;;;11.40;99.90;;;;;;5118516;27;20024;-57
2024/01/03 09:57:27;;;;;;;104.65;37.13;;;11.40;99.90;;;;;;5127961;28;20430;-57
2024/01/03 09:59:55;;;;;;;166.35;56.58;;;11.50;99.90;;;;;;5132159;28;20480;-57
2024/01/03 10:02:27;;;;;;;134.07;49.47;;;11.60;99.90;;;;;;5130310;28;20040;-57
2024/01/03 10:04:54;;;;;;;105.63;42.03;;;11.50;99.90;;;;;;5132587;27;20042;-57
2024/01/03 10:07:32;;;;;;;73.88;30.63;;;11.60;99.90;;;;;;5132283;27;20028;-57
2024/01/03 10:09:58;;;;;;;28.60;13.73;;;11.60;99.90;;;;;;5125518;27;20027;-57
2024/01/03 10:12:24;;;;;;;20.55;9.55;;;11.80;99.60;;;;;;5128546;27;20050;-57
2024/01/03 10:14:50;;;;;;;41.47;19.60;;;11.90;99.20;;;;;;5131232;28;20106;-57
2024/01/03 10:17:16;;;;;;;21.27;10.55;;;11.90;98.40;;;;;;5130610;27;20070;-57
2024/01/03 10:19:42;;;;;;;24.70;10.93;;;12.00;97.90;;;;;;5111977;28;20115;-57
2024/01/03 10:22:10;;;;;;;29.17;11.63;;;12.10;97.60;;;;;;5108669;28;20585;-57
2024/01/03 10:24:44;;;;;;;45.17;22.45;;;12.00;98.40;;;;;;5117394;28;20023;-57
2024/01/03 10:27:11;;;;;;;36.50;18.88;;;12.10;98.30;;;;;;5117624;28;20422;-57
2024/01/03 10:29:37;;;;;;;61.78;32.25;;;12.20;98.20;;;;;;5118537;28;20399;-56
2024/01/03 10:32:05;;;;;;;67.28;32.85;;;12.20;98.20;;;;;;5118381;28;20022;-57
2024/01/03 10:34:31;;;;;;;63.10;27.80;;;12.30;97.90;;;;;;5118551;28;20024;-57
2024/01/03 10:36:59;;;;;;;48.90;20.35;;;12.40;98.00;;;;;;5118743;28;20345;-57
2024/01/03 10:39:26;;;;;;;47.83;19.95;;;12.50;97.40;;;;;;5117839;28;20092;-57
2024/01/03 10:41:54;;;;;;;48.88;18.65;;;12.70;97.70;;;;;;5117985;28;20035;-57
2024/01/03 10:44:20;;;;;;;34.33;14.57;;;12.90;98.20;;;;;;5118273;28;20028;-57
2024/01/03 10:46:48;;;;;;;36.03;16.48;;;13.00;96.00;;;;;;5117707;28;20055;-57
2024/01/03 10:49:17;;;;;;;28.55;12.85;;;13.20;96.00;;;;;;5118342;28;20023;-57
2024/01/03 10:51:46;;;;;;;16.42;5.30;;;13.30;95.80;;;;;;5117813;28;20461;-57
2024/01/03 10:54:14;;;;;;;13.93;6.47;;;13.50;93.30;;;;;;5117921;28;20062;-57
2024/01/03 10:57:00;;;;;;;8.93;4.45;;;13.80;92.90;;;;;;5118528;28;20032;-57
2024/01/03 10:59:37;;;;;;;15.88;6.68;;;14.00;91.50;;;;;;5118058;28;20035;-57
2024/01/03 11:02:30;;;;;;;6.03;2.78;;;14.10;91.90;;;;;;5117925;28;20027;-57
2024/01/03 11:05:03;;;;;;;13.27;3.10;;;14.40;90.80;;;;;;5116381;28;20046;-57
2024/01/03 11:07:48;;;;;;;5.93;3.00;;;14.90;91.00;;;;;;5116944;28;20032;-57
2024/01/03 11:10:52;;;;;;;4.80;2.70;;;15.90;88.20;;;;;;5117810;28;20016;-57
2024/01/03 11:13:38;;;;;;;7.63;3.28;;;17.20;80.10;;;;;;5104113;28;20051;-57
2024/01/03 11:16:05;;;;;;;15.43;2.53;;;17.90;74.00;;;;;;5115435;28;20027;-57
2024/01/03 11:18:40;;;;;;;5.95;1.95;;;18.60;70.50;;;;;;5117627;28;20043;-58
2024/01/03 11:21:23;;;;;;;3.80;1.48;;;18.80;66.20;;;;;;5117581;28;20027;-58
2024/01/03 11:23:49;;;;;;;7.63;1.55;;;18.80;57.50;;;;;;5117296;28;20035;-57
2024/01/03 11:26:15;;;;;;;5.63;1.67;;;18.50;60.20;;;;;;5117515;28;20365;-57
2024/01/03 11:28:48;;;;;;;9.88;2.33;;;18.30;58.40;;;;;;5113118;28;20048;-57
2024/01/03 11:31:35;;;;;;;4.03;1.80;;;18.00;58.00;;;;;;5111619;28;20035;-57
2024/01/03 11:34:00;;;;;;;5.45;1.25;;;17.50;58.10;;;;;;5096015;28;20098;-58
2024/01/03 11:36:49;;;;;;;7.43;2.05;;;16.90;57.30;;;;;;5096937;28;20051;-57
2024/01/03 11:39:35;;;;;;;5.70;1.48;;;16.70;59.20;;;;;;5096471;28;20515;-57
2024/01/03 11:42:02;;;;;;;14.07;2.40;;;16.50;59.00;;;;;;5099925;28;20048;-57
2024/01/03 11:44:28;;;;;;;5.93;1.75;;;16.20;60.50;;;;;;5104724;28;20024;-57
2024/01/03 11:47:01;;;;;;;5.60;1.48;;;16.00;61.30;;;;;;5095610;28;20026;-57
2024/01/03 11:49:27;;;;;;;34.50;4.75;;;15.90;61.50;;;;;;5113857;28;20020;-57
2024/01/03 11:51:54;;;;;;;19.65;2.88;;;15.80;62.70;;;;;;5115705;28;20051;-57
2024/01/03 11:54:20;;;;;;;7.93;1.70;;;15.80;62.80;;;;;;5116264;28;20072;-57
2024/01/03 11:56:46;;;;;;;20.25;3.85;;;15.70;62.10;;;;;;5116458;28;20102;-57
2024/01/03 11:59:12;;;;;;;16.17;4.10;;;15.70;63.20;;;;;;5116791;28;20027;-57
2024/01/03 12:01:38;;;;;;;20.42;3.83;;;15.80;65.50;;;;;;5114732;28;20357;-57
2024/01/03 12:04:11;;;;;;;6.28;2.22;;;15.70;64.10;;;;;;5116678;28;20036;-57
2024/01/03 12:06:38;;;;;;;15.10;2.83;;;15.70;63.80;;;;;;5116591;28;20039;-57
2024/01/03 12:09:04;;;;;;;19.45;4.95;;;15.70;64.50;;;;;;5114383;28;20035;-57
2024/01/03 12:11:31;;;;;;;22.13;4.05;;;15.70;65.50;;;;;;5117029;28;20096;-57
2024/01/03 12:13:57;;;;;;;18.25;4.03;;;15.80;65.30;;;;;;5113502;28;20438;-57
2024/01/03 12:16:23;;;;;;;13.23;3.05;;;15.90;65.20;;;;;;5116160;28;20024;-57
2024/01/03 12:18:51;;;;;;;15.27;3.30;;;15.90;63.40;;;;;;5109608;28;20031;-57
2024/01/03 12:21:18;;;;;;;8.73;2.08;;;16.00;62.70;;;;;;5116374;28;20024;-57
2024/01/03 12:23:59;;;;;;;16.92;3.60;;;16.10;61.30;;;;;;5116190;28;20028;-57
2024/01/03 12:26:26;;;;;;;16.77;3.80;;;16.10;62.10;;;;;;5109392;28;20413;-58
2024/01/03 12:28:59;;;;;;;15.00;2.72;;;16.20;61.80;;;;;;5100721;28;20035;-57
2024/01/03 12:31:25;;;;;;;12.00;2.70;;;16.30;61.60;;;;;;5098811;28;20431;-58
2024/01/03 12:33:51;;;;;;;24.70;4.10;;;16.20;60.10;;;;;;5114956;28;20027;-58
2024/01/03 12:36:17;;;;;;;19.17;3.90;;;16.20;62.00;;;;;;5116363;28;20199;-57
2024/01/03 12:38:43;;;;;;;3.58;1.83;;;16.20;60.70;;;;;;5115709;28;20377;-58
2024/01/03 12:41:09;;;;;;;15.20;2.72;;;15.90;59.60;;;;;;5114242;28;20442;-57
2024/01/03 12:43:34;;;;;;;12.15;2.92;;;15.80;61.00;;;;;;5116113;28;20150;-57
2024/01/03 12:46:00;;;;;;;13.85;2.83;;;15.90;59.90;;;;;;5115640;28;20027;-57
2024/01/03 12:48:26;;;;;;;20.73;4.80;;;15.90;59.70;;;;;;5115555;28;20024;-58
2024/01/03 12:50:52;;;;;;;22.20;4.30;;;16.30;59.20;;;;;;5114397;28;20019;-57
2024/01/03 12:53:19;;;;;;;18.45;3.88;;;16.50;61.30;;;;;;5115416;28;20044;-57
2024/01/03 12:55:46;;;;;;;25.27;7.45;;;16.50;58.50;;;;;;5115641;28;20040;-58
2024/01/03 12:58:12;;;;;;;18.58;4.25;;;16.20;59.50;;;;;;5115526;28;20028;-57
2024/01/03 13:00:37;;;;;;;18.35;4.55;;;16.20;58.90;;;;;;5113130;28;20064;-58
2024/01/03 13:03:03;;;;;;;18.15;3.67;;;16.30;58.60;;;;;;5115455;28;20189;-57
2024/01/03 13:05:29;;;;;;;22.98;5.53;;;16.30;59.10;;;;;;5108862;28;20076;-57
2024/01/03 13:07:55;;;;;;;28.27;7.38;;;16.30;59.60;;;;;;5114662;28;20110;-58
2024/01/03 13:10:21;;;;;;;37.63;8.95;;;16.30;59.40;;;;;;5115521;28;20028;-57
2024/01/03 13:12:49;;;;;;;40.97;9.68;;;16.20;59.20;;;;;;5115461;28;20027;-57
2024/01/03 13:15:16;;;;;;;33.42;8.75;;;16.20;59.90;;;;;;5113106;28;20062;-57
2024/01/03 13:17:42;;;;;;;25.42;6.80;;;16.10;60.00;;;;;;5115204;28;20519;-57
2024/01/03 13:20:08;;;;;;;19.23;4.57;;;16.00;60.90;;;;;;5115553;28;20073;-58
2024/01/03 13:22:34;;;;;;;25.90;5.10;;;16.10;60.50;;;;;;5115805;28;20437;-57
2024/01/03 13:25:00;;;;;;;31.45;6.05;;;16.00;61.30;;;;;;5116112;28;20089;-58
2024/01/03 13:27:26;;;;;;;43.38;10.80;;;15.90;60.90;;;;;;5116137;28;20027;-57
2024/01/03 13:29:51;;;;;;;43.00;11.20;;;15.90;62.00;;;;;;5115459;28;20036;-58
2024/01/03 13:32:17;;;;;;;46.17;11.60;;;15.90;62.20;;;;;;5115623;28;20043;-57
2024/01/03 13:34:43;;;;;;;50.63;16.98;;;15.80;61.80;;;;;;5115213;28;20027;-58
2024/01/03 13:37:09;;;;;;;35.67;13.55;;;15.80;62.60;;;;;;5111230;28;20036;-57
2024/01/03 13:39:36;;;;;;;27.77;9.82;;;15.80;61.60;;;;;;5113517;28;20015;-58
2024/01/03 13:42:03;;;;;;;31.05;9.10;;;15.70;60.60;;;;;;5114997;28;20056;-57
2024/01/03 13:44:29;;;;;;;67.07;20.27;;;15.60;61.00;;;;;;5114953;28;20173;-57
2024/01/03 13:46:56;;;;;;;32.83;8.85;;;15.50;61.40;;;;;;5115463;28;20046;-58
2024/01/03 13:49:22;;;;;;;36.75;6.95;;;15.50;62.20;;;;;;5106849;28;20028;-57
2024/01/03 13:51:51;;;;;;;29.10;6.53;;;15.50;62.00;;;;;;5101025;28;20050;-57
2024/01/03 13:54:20;;;;;;;32.08;6.97;;;15.60;62.80;;;;;;5106747;28;20056;-57
2024/01/03 13:56:46;;;;;;;18.60;4.63;;;15.90;61.50;;;;;;5114498;28;20062;-57
2024/01/03 13:59:12;;;;;;;34.15;12.07;;;16.10;60.60;;;;;;5118816;28;20049;-57
2024/01/03 14:01:38;;;;;;;56.67;15.05;;;16.20;60.30;;;;;;5119010;28;20115;-57
2024/01/03 14:04:03;;;;;;;26.05;7.10;;;16.50;60.20;;;;;;5118844;28;20066;-57
2024/01/03 14:06:29;;;;;;;30.83;6.55;;;16.80;59.30;;;;;;5115908;28;20046;-58
2024/01/03 14:08:55;;;;;;;26.95;6.13;;;17.60;57.40;;;;;;5118050;28;20107;-58
2024/01/03 14:11:21;;;;;;;33.63;11.15;;;18.30;55.50;;;;;;5118297;28;20027;-58
2024/01/03 14:13:50;;;;;;;29.25;7.65;;;19.10;54.20;;;;;;5111479;28;20042;-58
2024/01/03 14:16:16;;;;;;;15.85;6.28;;;20.20;51.60;;;;;;5099087;28;20039;-58
2024/01/03 14:18:41;;;;;;;14.32;4.63;;;21.00;47.20;;;;;;5100319;28;20028;-58
2024/01/03 14:21:07;;;;;;;30.15;10.60;;;20.80;46.30;;;;;;5117260;28;20028;-58
2024/01/03 14:23:36;;;;;;;19.25;5.32;;;21.10;45.60;;;;;;5115976;27;20027;-58